Terminal Aerodrome Forecast
Issued by NWS

Home | Current Version | Previous Version | Text Only | Print | Product List | Glossary On
Versions: 1 2 3 4 5 6 7 8 9 10 11 12 13 14 15 16 17 18 19 20 21 22 23 24 25 26 27 28 29 30 31 32
000
FTUS41 KBUF 050500
TAFIAG
TAF
KIAG 050520Z 0506/0606 31012G18KT 6SM -SN SCT025 BKN035
      TEMPO 0506/0507 4SM -SN BKN025
     FM050900 31010KT P6SM SCT050 BKN080
     FM051600 28010KT P6SM SCT035 BKN070
     FM052300 26008KT P6SM SCT150=

USA.gov is the U.S. government's official web portal to all federal, state and local government web resources and services.